createdAt,value
2022-10-12T00:00:48.972Z,72.64
2022-10-12T00:02:10.113Z,71.83
2022-10-12T00:03:13.416Z,71.64
2022-10-12T00:04:16.575Z,72.33
2022-10-12T00:05:19.417Z,72.52
2022-10-12T00:06:23.895Z,72.68
2022-10-12T00:07:26.874Z,72.59
2022-10-12T00:08:29.789Z,72.32
2022-10-12T00:09:32.861Z,71.91
2022-10-12T00:10:40.196Z,72.23
2022-10-12T00:11:43.100Z,72.38
2022-10-12T00:12:46.210Z,72.19
2022-10-12T00:13:49.310Z,72.03
2022-10-12T00:14:52.219Z,71.94
2022-10-12T00:15:55.170Z,72.15
2022-10-12T00:16:58.273Z,72.12
2022-10-12T00:18:01.248Z,71.82
2022-10-12T00:19:04.231Z,71.15
2022-10-12T00:20:07.510Z,71.76
2022-10-12T00:21:13.006Z,71.85
2022-10-12T00:22:16.123Z,71.96
2022-10-12T00:23:19.042Z,71.38
2022-10-12T00:24:22.000Z,71.69
2022-10-12T00:25:24.950Z,71.50
2022-10-12T00:26:29.020Z,71.54
2022-10-12T00:27:31.894Z,71.28
2022-10-12T00:28:35.193Z,70.86
2022-10-12T00:29:38.100Z,70.26
2022-10-12T00:30:41.448Z,69.69
2022-10-12T00:31:44.281Z,69.92
2022-10-12T00:32:47.155Z,69.10
2022-10-12T00:33:50.097Z,69.17
2022-10-12T00:34:52.876Z,69.72
2022-10-12T00:35:56.139Z,70.35
2022-10-12T00:36:58.962Z,70.93
2022-10-12T00:38:01.756Z,70.06
2022-10-12T00:39:05.835Z,70.12
2022-10-12T00:40:09.089Z,70.57
2022-10-12T00:41:12.572Z,70.87
2022-10-12T00:42:15.670Z,71.20
2022-10-12T00:43:38.090Z,71.86
2022-10-12T00:44:41.069Z,71.35
2022-10-12T00:45:43.907Z,72.01
2022-10-12T00:46:47.014Z,72.21
2022-10-12T00:47:55.896Z,72.04
2022-10-12T00:49:10.859Z,72.22
2022-10-12T00:50:34.223Z,72.50
2022-10-12T00:51:37.844Z,72.06
2022-10-12T00:52:44.726Z,71.11
2022-10-12T00:53:50.927Z,71.98
2022-10-12T00:54:54.366Z,72.37
2022-10-12T00:56:02.273Z,71.93
2022-10-12T00:57:06.062Z,71.63
2022-10-12T00:58:09.265Z,71.39
2022-10-12T00:59:14.540Z,71.60
2022-10-12T01:00:18.367Z,71.43
2022-10-12T01:01:21.887Z,72.47
2022-10-12T01:02:26.284Z,71.38
2022-10-12T01:03:29.218Z,71.46
2022-10-12T01:04:33.061Z,70.94
2022-10-12T01:05:36.479Z,70.22
2022-10-12T01:06:39.357Z,71.61
2022-10-12T01:07:42.182Z,71.93
2022-10-12T01:08:46.166Z,72.56
2022-10-12T01:09:49.083Z,72.07
2022-10-12T01:10:52.007Z,70.39
2022-10-12T01:11:56.299Z,71.19
2022-10-12T01:12:59.746Z,71.34
2022-10-12T01:14:02.832Z,71.47
2022-10-12T01:15:06.122Z,72.14
2022-10-12T01:16:15.377Z,72.07
2022-10-12T01:17:36.737Z,70.53
2022-10-12T01:18:48.475Z,71.38
2022-10-12T01:20:06.563Z,71.04
2022-10-12T01:21:09.590Z,71.34
2022-10-12T01:22:15.899Z,70.46
2022-10-12T01:23:19.036Z,70.67
2022-10-12T01:24:34.623Z,69.87
2022-10-12T01:25:40.429Z,69.32
2022-10-12T01:26:52.825Z,70.04
2022-10-12T01:28:02.973Z,71.89
2022-10-12T01:29:14.942Z,71.91
2022-10-12T01:30:29.923Z,71.60
2022-10-12T01:31:49.548Z,69.98
2022-10-12T01:32:55.225Z,70.72
2022-10-12T01:34:00.124Z,71.19
2022-10-12T01:35:10.314Z,70.15
2022-10-12T01:36:17.337Z,71.06
2022-10-12T01:37:39.274Z,71.34
2022-10-12T01:39:00.992Z,71.51
2022-10-12T01:40:07.914Z,71.72
2022-10-12T01:41:15.506Z,71.98
2022-10-12T01:42:23.623Z,71.57
2022-10-12T01:43:37.036Z,71.29
2022-10-12T01:44:42.814Z,71.91
2022-10-12T01:45:46.098Z,70.98
2022-10-12T01:46:49.384Z,71.79
2022-10-12T01:47:53.822Z,72.34
2022-10-12T01:49:00.699Z,72.43
2022-10-12T01:50:05.749Z,71.64
2022-10-12T01:51:10.304Z,72.33
2022-10-12T01:52:18.841Z,72.31
2022-10-12T01:53:41.788Z,71.36
2022-10-12T01:55:00.298Z,72.53
2022-10-12T01:56:09.270Z,72.52
2022-10-12T01:57:29.837Z,72.32
2022-10-12T01:58:38.201Z,72.38
2022-10-12T01:59:52.033Z,72.35
2022-10-12T02:01:01.039Z,70.93
2022-10-12T02:02:14.613Z,71.16
2022-10-12T02:03:24.217Z,71.83
2022-10-12T02:04:30.116Z,72.22
2022-10-12T02:05:38.618Z,72.24
2022-10-12T02:06:46.287Z,72.54
2022-10-12T02:07:52.348Z,72.82
2022-10-12T02:08:59.863Z,72.81
2022-10-12T02:10:03.256Z,72.02
2022-10-12T02:11:06.219Z,72.18
2022-10-12T02:12:18.545Z,72.09
2022-10-12T02:13:23.648Z,72.21
2022-10-12T02:14:30.042Z,72.61
2022-10-12T02:15:34.495Z,72.52
2022-10-12T02:16:41.123Z,72.83
2022-10-12T02:17:47.577Z,72.85
2022-10-12T02:18:53.148Z,72.77
2022-10-12T02:19:58.020Z,71.32
2022-10-12T02:21:01.576Z,72.21
2022-10-12T02:22:05.817Z,72.10
2022-10-12T02:23:10.339Z,72.43
2022-10-12T02:24:15.065Z,72.41
2022-10-12T02:25:19.963Z,72.15
2022-10-12T02:26:23.456Z,72.27
2022-10-12T02:27:27.048Z,72.58
2022-10-12T02:28:30.976Z,71.60
2022-10-12T02:29:38.656Z,71.97
2022-10-12T02:32:09.355Z,72.30
2022-10-12T02:33:21.770Z,71.86
2022-10-12T02:34:37.096Z,71.52
2022-10-12T02:35:46.967Z,72.33
2022-10-12T02:36:56.963Z,72.58
2022-10-12T02:38:02.439Z,72.94
2022-10-12T02:39:25.817Z,72.70
2022-10-12T02:40:37.704Z,72.88
2022-10-12T02:41:49.395Z,72.44
2022-10-12T02:43:09.981Z,72.04
2022-10-12T02:44:16.416Z,71.35
2022-10-12T02:45:19.682Z,70.65
2022-10-12T02:46:24.450Z,71.84
2022-10-12T02:47:29.005Z,72.28
2022-10-12T02:48:32.059Z,72.46
2022-10-12T02:49:36.349Z,72.67
2022-10-12T02:50:39.569Z,72.79
2022-10-12T02:51:43.820Z,72.74
2022-10-12T02:52:47.035Z,72.87
2022-10-12T02:53:50.540Z,73.05
2022-10-12T02:54:53.631Z,73.03
2022-10-12T02:56:11.199Z,72.82
2022-10-12T02:57:14.010Z,72.76
2022-10-12T02:58:17.656Z,72.77
2022-10-12T02:59:20.502Z,72.69
2022-10-12T03:00:23.609Z,72.94
2022-10-12T03:01:27.026Z,73.12
2022-10-12T03:02:30.053Z,73.09
2022-10-12T03:03:32.973Z,73.20
2022-10-12T03:04:35.825Z,73.24
2022-10-12T03:05:38.883Z,73.26
2022-10-12T03:06:42.755Z,72.03
2022-10-12T03:07:46.405Z,72.76
2022-10-12T03:08:49.195Z,73.02
2022-10-12T03:09:52.478Z,73.16
2022-10-12T03:10:55.456Z,73.29
2022-10-12T03:11:58.234Z,73.20
2022-10-12T03:13:01.140Z,73.37
2022-10-12T03:14:04.565Z,73.48
2022-10-12T03:15:07.464Z,73.35
2022-10-12T03:16:11.683Z,72.89
2022-10-12T03:17:14.501Z,72.87
2022-10-12T03:18:17.436Z,72.97
2022-10-12T03:19:20.194Z,72.93
2022-10-12T03:20:23.245Z,73.01
2022-10-12T03:21:26.277Z,73.33
2022-10-12T03:22:29.111Z,73.37
2022-10-12T03:23:32.016Z,73.22
2022-10-12T03:24:35.088Z,72.78
2022-10-12T03:25:38.002Z,72.43
2022-10-12T03:26:41.277Z,71.34
2022-10-12T03:27:44.396Z,72.15
2022-10-12T03:28:47.486Z,72.83
2022-10-12T03:29:50.413Z,73.15
2022-10-12T03:30:53.297Z,73.34
2022-10-12T03:31:56.567Z,72.95
2022-10-12T03:32:59.378Z,73.32
2022-10-12T03:34:02.419Z,73.47
2022-10-12T03:35:05.459Z,73.26
2022-10-12T03:36:09.790Z,73.32
2022-10-12T03:37:12.636Z,73.39
2022-10-12T03:38:15.950Z,73.48
2022-10-12T03:39:19.287Z,73.49
2022-10-12T03:40:22.187Z,73.39
2022-10-12T03:41:25.059Z,73.37
2022-10-12T03:42:28.593Z,73.44
2022-10-12T03:43:31.441Z,73.37
2022-10-12T03:44:34.835Z,73.38
2022-10-12T03:45:38.153Z,73.13
2022-10-12T03:46:41.041Z,73.14
2022-10-12T03:47:44.243Z,73.36
2022-10-12T03:48:47.120Z,73.43
2022-10-12T03:49:50.125Z,73.42
2022-10-12T03:50:53.300Z,72.96
2022-10-12T03:51:56.150Z,73.18
2022-10-12T03:52:59.262Z,73.32
2022-10-12T03:54:02.342Z,72.76
2022-10-12T03:55:05.431Z,72.40
2022-10-12T03:56:08.257Z,72.18
2022-10-12T03:57:11.081Z,72.41
2022-10-12T03:58:14.607Z,72.10
2022-10-12T03:59:17.480Z,72.70
2022-10-12T04:00:22.538Z,72.51
2022-10-12T04:01:25.930Z,72.46
2022-10-12T04:02:29.042Z,72.07
2022-10-12T04:03:32.098Z,72.60
2022-10-12T04:04:35.513Z,72.19
2022-10-12T04:05:40.044Z,72.46
2022-10-12T04:06:42.857Z,72.72
2022-10-12T04:07:45.731Z,73.06
2022-10-12T04:08:50.980Z,73.23
2022-10-12T04:09:54.083Z,71.86
2022-10-12T04:10:56.955Z,72.16
2022-10-12T04:12:00.347Z,72.73
2022-10-12T04:13:03.278Z,72.76
2022-10-12T04:14:06.541Z,72.51
2022-10-12T04:15:10.180Z,72.52
2022-10-12T04:16:13.537Z,71.82
2022-10-12T04:17:16.931Z,72.64
2022-10-12T04:18:19.808Z,72.73
2022-10-12T04:19:22.828Z,72.71
2022-10-12T04:20:25.869Z,72.79
2022-10-12T04:21:30.849Z,73.13
2022-10-12T04:22:34.742Z,73.13
2022-10-12T04:23:37.503Z,73.10
2022-10-12T04:24:40.418Z,73.25
2022-10-12T04:25:43.238Z,72.91
2022-10-12T04:26:46.154Z,71.72
2022-10-12T04:27:48.988Z,72.53
2022-10-12T04:28:51.895Z,72.51
2022-10-12T04:29:55.512Z,72.88
2022-10-12T04:30:58.677Z,73.01
2022-10-12T04:32:01.522Z,73.02
2022-10-12T04:33:04.678Z,73.10
2022-10-12T04:34:08.981Z,73.13
2022-10-12T04:35:12.162Z,72.71
2022-10-12T04:37:07.946Z,72.97
2022-10-12T04:38:10.727Z,72.90
2022-10-12T04:39:13.914Z,72.95
2022-10-12T04:40:16.951Z,72.99
2022-10-12T04:41:20.386Z,73.00
2022-10-12T04:42:23.219Z,73.00
2022-10-12T04:43:26.094Z,72.95
2022-10-12T04:44:32.133Z,73.01
2022-10-12T04:45:35.597Z,73.06
2022-10-12T04:46:38.419Z,73.09
2022-10-12T04:47:41.380Z,73.12
2022-10-12T04:48:44.224Z,72.99
2022-10-12T04:49:47.044Z,72.12
2022-10-12T04:50:50.034Z,71.93
2022-10-12T04:51:52.871Z,72.43
2022-10-12T04:52:55.767Z,72.84
2022-10-12T04:53:58.600Z,72.98
2022-10-12T04:55:01.564Z,73.04
2022-10-12T04:56:05.873Z,72.44
2022-10-12T04:57:08.787Z,72.30
2022-10-12T04:58:11.643Z,71.82
2022-10-12T04:59:14.511Z,72.44
2022-10-12T05:00:17.678Z,73.06
2022-10-12T05:01:20.704Z,73.11
2022-10-12T05:02:23.650Z,72.41
2022-10-12T05:03:26.550Z,71.85
2022-10-12T05:04:29.558Z,72.38
2022-10-12T05:05:34.471Z,72.78
2022-10-12T05:06:37.612Z,73.45
2022-10-12T05:07:40.801Z,72.91
2022-10-12T05:08:44.083Z,72.94
2022-10-12T05:09:46.959Z,73.46
2022-10-12T05:10:49.772Z,73.21
2022-10-12T05:11:52.758Z,74.00
2022-10-12T05:12:55.647Z,74.31
2022-10-12T05:13:58.971Z,74.43
2022-10-12T05:15:01.871Z,74.59
2022-10-12T05:16:04.752Z,74.51
2022-10-12T05:17:07.969Z,74.39
2022-10-12T05:18:11.245Z,74.19
2022-10-12T05:19:14.074Z,74.43
2022-10-12T05:20:16.934Z,74.73
2022-10-12T05:21:19.782Z,75.09
2022-10-12T05:22:22.843Z,74.85
2022-10-12T05:23:25.956Z,74.67
2022-10-12T05:24:29.087Z,74.43
2022-10-12T05:25:32.489Z,75.14
2022-10-12T05:26:35.301Z,74.63
2022-10-12T05:27:38.783Z,74.55
2022-10-12T05:28:41.935Z,74.57
2022-10-12T05:29:44.904Z,74.84
2022-10-12T05:30:51.481Z,73.67
2022-10-12T05:31:54.377Z,73.63
2022-10-12T05:32:57.467Z,73.45
2022-10-12T05:34:00.315Z,73.45
2022-10-12T05:35:03.678Z,74.14
2022-10-12T05:36:06.837Z,74.25
2022-10-12T05:37:09.819Z,73.41
2022-10-12T05:38:12.877Z,72.60
2022-10-12T05:39:15.690Z,72.21
2022-10-12T05:40:18.733Z,72.24
2022-10-12T05:41:21.520Z,71.99
2022-10-12T05:42:24.539Z,72.62
2022-10-12T05:43:27.816Z,73.64
2022-10-12T05:44:30.601Z,73.53
2022-10-12T05:45:33.838Z,72.29
2022-10-12T05:46:36.664Z,73.58
2022-10-12T05:47:40.402Z,73.68
2022-10-12T05:48:43.707Z,73.63
2022-10-12T05:49:46.514Z,74.62
2022-10-12T05:50:52.120Z,74.92
2022-10-12T05:51:54.964Z,74.86
2022-10-12T05:52:57.806Z,75.10
2022-10-12T05:54:04.564Z,74.99
2022-10-12T05:55:11.125Z,75.08
2022-10-12T05:56:14.178Z,75.03
2022-10-12T05:57:17.062Z,74.93
2022-10-12T05:58:19.943Z,74.81
2022-10-12T05:59:23.326Z,74.76
2022-10-12T06:00:26.183Z,74.82
2022-10-12T06:01:29.150Z,74.83
2022-10-12T06:02:32.170Z,74.57
2022-10-12T06:03:35.433Z,74.66
2022-10-12T06:04:38.721Z,74.72
2022-10-12T06:05:41.962Z,74.52
2022-10-12T06:06:45.002Z,74.49
2022-10-12T06:07:47.851Z,74.55
2022-10-12T06:08:50.789Z,74.54
2022-10-12T06:09:54.352Z,74.25
2022-10-12T06:10:57.580Z,74.25
2022-10-12T06:12:00.408Z,74.31
2022-10-12T06:13:03.304Z,74.24
2022-10-12T06:14:06.336Z,74.17
2022-10-12T06:15:09.959Z,74.12
2022-10-12T06:16:12.896Z,74.03
2022-10-12T06:17:15.742Z,73.64
2022-10-12T06:18:19.031Z,73.70
2022-10-12T06:19:21.935Z,73.62
2022-10-12T06:20:25.078Z,73.54
2022-10-12T06:21:33.523Z,73.26
2022-10-12T06:22:38.032Z,73.16
2022-10-12T06:23:41.409Z,72.77
2022-10-12T06:24:50.760Z,71.33
2022-10-12T06:25:54.011Z,72.15
2022-10-12T06:26:57.124Z,72.51
2022-10-12T06:27:59.978Z,72.60
2022-10-12T06:29:02.760Z,72.54
2022-10-12T06:30:05.958Z,72.35
2022-10-12T06:31:09.335Z,72.17
2022-10-12T06:32:12.159Z,71.59
2022-10-12T06:33:15.023Z,71.81
2022-10-12T06:34:18.124Z,71.84
2022-10-12T06:35:21.023Z,71.54
2022-10-12T06:36:24.135Z,71.40
2022-10-12T06:37:48.715Z,71.03
2022-10-12T06:38:53.171Z,71.08
2022-10-12T06:39:56.045Z,70.48
2022-10-12T06:40:58.874Z,69.81
2022-10-12T06:42:02.240Z,69.65
2022-10-12T06:43:05.384Z,69.30
2022-10-12T06:44:08.670Z,69.00
2022-10-12T06:45:12.054Z,68.90
2022-10-12T06:46:14.936Z,68.86
2022-10-12T06:47:17.886Z,68.89
2022-10-12T06:48:20.709Z,68.92
2022-10-12T06:49:23.552Z,68.92
2022-10-12T06:50:26.700Z,69.06
2022-10-12T06:51:29.619Z,68.98
2022-10-12T06:52:32.718Z,69.03
2022-10-12T06:53:36.676Z,69.18
2022-10-12T06:54:41.340Z,69.11
2022-10-12T06:55:44.200Z,69.09
2022-10-12T06:56:47.026Z,69.18
2022-10-12T06:57:50.198Z,69.12
2022-10-12T06:58:55.963Z,69.10
2022-10-12T06:59:58.808Z,69.20
2022-10-12T07:01:03.010Z,69.00
2022-10-12T07:02:06.369Z,68.82
2022-10-12T07:03:12.292Z,68.88
2022-10-12T07:04:15.501Z,68.99
2022-10-12T07:05:19.062Z,68.80
2022-10-12T07:06:21.941Z,69.03
2022-10-12T07:07:24.779Z,69.13
2022-10-12T07:08:27.834Z,69.09
2022-10-12T07:09:30.693Z,69.04
2022-10-12T07:10:33.570Z,69.05
2022-10-12T07:11:36.358Z,69.07
2022-10-12T07:12:39.653Z,68.79
2022-10-12T07:13:43.257Z,68.68
2022-10-12T07:14:46.046Z,68.63
2022-10-12T07:15:50.186Z,68.41
2022-10-12T07:16:55.267Z,68.42
2022-10-12T07:17:58.790Z,68.41
2022-10-12T07:19:02.157Z,68.43
2022-10-12T07:20:05.679Z,68.45
2022-10-12T07:21:08.796Z,68.57
2022-10-12T07:22:11.974Z,68.49
2022-10-12T07:23:14.786Z,68.39
2022-10-12T07:24:17.911Z,68.42
2022-10-12T07:25:22.399Z,68.25
2022-10-12T07:26:25.211Z,68.12
2022-10-12T07:27:28.051Z,68.17
2022-10-12T07:28:31.109Z,68.28
2022-10-12T07:29:34.831Z,68.04
2022-10-12T07:30:37.626Z,67.89
2022-10-12T07:31:42.294Z,67.87
2022-10-12T07:32:46.414Z,67.70
2022-10-12T07:33:49.302Z,67.53
2022-10-12T07:34:52.438Z,67.64
2022-10-12T07:36:22.284Z,67.69
2022-10-12T07:37:18.726Z,67.65
2022-10-12T07:38:21.608Z,67.70
2022-10-12T07:39:24.936Z,67.72
2022-10-12T07:40:27.941Z,67.46
2022-10-12T07:41:30.892Z,67.34
2022-10-12T07:42:33.755Z,67.09
2022-10-12T07:43:36.568Z,67.18
2022-10-12T07:44:39.489Z,67.26
2022-10-12T07:45:43.922Z,67.38
2022-10-12T07:46:46.802Z,67.40
2022-10-12T07:47:49.567Z,67.11
2022-10-12T07:48:52.433Z,67.00
2022-10-12T07:49:55.319Z,66.99
2022-10-12T07:51:04.939Z,67.11
2022-10-12T07:52:07.698Z,67.14
2022-10-12T07:53:10.554Z,67.05
2022-10-12T07:54:18.988Z,66.93
2022-10-12T07:55:23.602Z,66.99
2022-10-12T07:56:26.979Z,67.00
2022-10-12T07:57:29.879Z,65.55
2022-10-12T07:58:33.239Z,65.76
2022-10-12T07:59:36.240Z,65.89
2022-10-12T08:00:39.262Z,65.82
2022-10-12T08:01:42.370Z,65.63
2022-10-12T08:02:45.293Z,65.59
2022-10-12T08:03:48.943Z,65.62
2022-10-12T08:04:52.102Z,65.12
2022-10-12T08:05:54.920Z,65.34
2022-10-12T08:06:59.657Z,65.53
2022-10-12T08:08:02.563Z,65.14
2022-10-12T08:09:05.399Z,64.50
2022-10-12T08:10:08.267Z,64.66
2022-10-12T08:11:12.096Z,64.43
2022-10-12T08:12:15.538Z,64.47
2022-10-12T08:13:18.299Z,64.84
2022-10-12T08:14:21.261Z,63.73
2022-10-12T08:15:24.087Z,64.63
2022-10-12T08:16:27.207Z,64.07
2022-10-12T08:17:30.315Z,63.83
2022-10-12T08:18:33.119Z,63.31
2022-10-12T08:19:36.547Z,62.38
2022-10-12T08:20:39.468Z,62.53
2022-10-12T08:21:42.927Z,62.92
2022-10-12T08:22:46.270Z,63.67
2022-10-12T08:23:50.481Z,63.00
2022-10-12T08:24:53.476Z,62.94
2022-10-12T08:25:56.645Z,63.26
2022-10-12T08:27:01.525Z,62.52
2022-10-12T08:28:05.441Z,61.90
2022-10-12T08:29:08.675Z,62.83
2022-10-12T08:30:11.927Z,62.37
2022-10-12T08:31:17.513Z,62.16
2022-10-12T08:32:20.798Z,61.92
2022-10-12T08:33:24.078Z,61.31
2022-10-12T08:34:26.831Z,61.17
2022-10-12T08:35:29.646Z,62.54
2022-10-12T08:36:32.778Z,62.61
2022-10-12T08:37:36.211Z,62.13
2022-10-12T08:38:39.669Z,61.98
2022-10-12T08:39:42.893Z,61.25
2022-10-12T08:40:54.713Z,61.65
2022-10-12T08:42:13.269Z,61.99
2022-10-12T08:43:28.295Z,61.72
2022-10-12T08:44:34.520Z,61.01
2022-10-12T08:45:40.429Z,61.02
2022-10-12T08:46:43.407Z,60.58
2022-10-12T08:47:48.142Z,61.14
2022-10-12T08:48:50.970Z,60.71
2022-10-12T08:49:54.176Z,60.86
2022-10-12T08:51:05.126Z,60.27
2022-10-12T08:52:14.083Z,60.41
2022-10-12T08:53:22.868Z,60.62
2022-10-12T08:54:29.662Z,60.64
2022-10-12T08:55:35.963Z,59.88
2022-10-12T08:56:41.298Z,58.98
2022-10-12T08:57:49.059Z,57.98
2022-10-12T08:58:53.628Z,58.05
2022-10-12T08:59:56.546Z,56.03
2022-10-12T09:01:15.595Z,57.81
2022-10-12T09:02:31.944Z,59.06
2022-10-12T09:03:38.507Z,59.15
2022-10-12T09:04:44.274Z,58.94
2022-10-12T09:05:53.894Z,59.87
2022-10-12T09:07:16.113Z,60.07
2022-10-12T09:08:25.382Z,60.80
2022-10-12T09:09:44.188Z,61.25
2022-10-12T09:10:51.437Z,61.05
2022-10-12T09:11:54.207Z,61.77
2022-10-12T09:13:15.988Z,61.06
2022-10-12T09:14:24.916Z,60.95
2022-10-12T09:15:37.381Z,60.22
2022-10-12T09:16:43.069Z,60.95
2022-10-12T09:17:51.359Z,61.32
2022-10-12T09:19:01.256Z,61.04
2022-10-12T09:20:06.949Z,61.08
2022-10-12T09:21:13.834Z,61.60
2022-10-12T09:22:20.190Z,61.72
2022-10-12T09:23:25.434Z,61.77
2022-10-12T09:24:32.259Z,60.73
2022-10-12T09:25:35.764Z,60.73
2022-10-12T09:26:40.067Z,61.16
2022-10-12T09:27:47.906Z,61.03
2022-10-12T09:28:52.047Z,61.15
2022-10-12T09:29:57.752Z,61.30
2022-10-12T09:31:11.177Z,61.76
2022-10-12T09:32:49.460Z,61.96
2022-10-12T09:33:55.652Z,60.60
2022-10-12T09:34:59.753Z,60.50
2022-10-12T09:36:02.591Z,61.35
2022-10-12T09:37:07.121Z,61.39
2022-10-12T09:38:10.289Z,61.17
2022-10-12T09:39:16.035Z,60.87
2022-10-12T09:40:22.715Z,60.14
2022-10-12T09:41:55.682Z,60.67
2022-10-12T09:43:00.390Z,60.87
2022-10-12T09:44:04.339Z,60.81
2022-10-12T09:45:19.052Z,59.08
2022-10-12T09:46:28.057Z,59.01
2022-10-12T09:47:31.938Z,58.68
2022-10-12T09:48:35.153Z,58.79
2022-10-12T09:49:45.629Z,60.18
2022-10-12T09:50:56.158Z,59.62
2022-10-12T09:52:00.319Z,59.59
2022-10-12T09:53:12.136Z,58.95
2022-10-12T09:54:18.834Z,59.58
2022-10-12T09:56:41.155Z,59.07
2022-10-12T09:57:51.810Z,59.41
2022-10-12T09:58:56.888Z,57.96
2022-10-12T10:00:00.762Z,58.18
2022-10-12T10:01:16.605Z,58.22
2022-10-12T10:02:20.857Z,58.25
2022-10-12T10:03:29.254Z,58.69
2022-10-12T10:04:34.615Z,58.65
2022-10-12T10:05:38.529Z,58.66
2022-10-12T10:06:43.094Z,58.83
2022-10-12T10:07:45.956Z,58.75
2022-10-12T10:08:49.086Z,58.88
2022-10-12T10:10:13.494Z,58.93
2022-10-12T10:11:21.259Z,58.97
2022-10-12T10:12:26.997Z,58.66
2022-10-12T10:13:31.709Z,58.68
2022-10-12T10:14:35.736Z,59.01
2022-10-12T10:15:39.264Z,59.13
2022-10-12T10:16:52.447Z,59.50
2022-10-12T10:18:01.663Z,59.30
2022-10-12T10:19:04.489Z,59.37
2022-10-12T10:20:22.022Z,59.36
2022-10-12T10:21:35.240Z,59.12
2022-10-12T10:22:47.060Z,59.54
2022-10-12T10:24:00.751Z,59.51
2022-10-12T10:25:03.797Z,59.10
2022-10-12T10:26:12.677Z,59.07
2022-10-12T10:27:28.248Z,58.12
2022-10-12T10:28:32.303Z,58.36
2022-10-12T10:29:36.770Z,58.10
2022-10-12T10:30:41.354Z,58.35
2022-10-12T10:31:46.567Z,57.64
2022-10-12T10:32:49.715Z,57.72
2022-10-12T10:34:07.723Z,57.79
2022-10-12T10:35:13.734Z,58.15
2022-10-12T10:36:22.325Z,58.06
2022-10-12T10:37:25.780Z,57.93
2022-10-12T10:38:31.350Z,58.32
2022-10-12T10:39:45.760Z,58.32
2022-10-12T10:40:57.004Z,57.84
2022-10-12T10:42:10.371Z,57.63
2022-10-12T10:43:19.242Z,57.27
2022-10-12T10:44:28.312Z,57.60
2022-10-12T10:45:37.159Z,57.86
2022-10-12T10:46:40.262Z,57.69
2022-10-12T10:47:46.520Z,57.67
2022-10-12T10:48:56.335Z,57.28
2022-10-12T10:50:00.982Z,57.51
2022-10-12T10:51:05.127Z,56.66
2022-10-12T10:52:19.932Z,57.01
2022-10-12T10:53:24.755Z,57.01
2022-10-12T10:54:31.779Z,56.55
2022-10-12T10:55:44.107Z,56.21
2022-10-12T10:56:47.377Z,55.51
2022-10-12T10:57:59.546Z,55.90
2022-10-12T10:59:12.819Z,56.26
2022-10-12T11:00:38.037Z,54.99
2022-10-12T11:01:53.856Z,55.57
2022-10-12T11:02:58.811Z,55.78
2022-10-12T11:04:07.314Z,55.18
2022-10-12T11:05:18.240Z,54.72
2022-10-12T11:06:33.636Z,54.40
2022-10-12T11:07:42.920Z,54.23
2022-10-12T11:08:46.805Z,54.11
2022-10-12T11:09:53.769Z,53.88
2022-10-12T11:10:59.187Z,54.06
2022-10-12T11:12:11.082Z,54.18
2022-10-12T11:13:22.760Z,53.30
2022-10-12T11:14:29.094Z,53.70
2022-10-12T11:15:44.314Z,53.29
2022-10-12T11:16:47.123Z,54.17
2022-10-12T11:17:57.876Z,54.17
2022-10-12T11:19:13.954Z,54.35
2022-10-12T11:20:23.084Z,53.86
2022-10-12T11:21:45.208Z,53.22
2022-10-12T11:22:50.988Z,52.35
2022-10-12T11:23:56.927Z,51.82
2022-10-12T11:25:07.387Z,51.04
2022-10-12T11:26:30.100Z,49.89
2022-10-12T11:27:36.162Z,50.86
2022-10-12T11:28:40.468Z,49.51
2022-10-12T11:29:43.691Z,47.51
2022-10-12T11:30:49.828Z,48.04
2022-10-12T11:32:03.341Z,50.10
2022-10-12T11:33:10.376Z,50.81
2022-10-12T11:34:16.924Z,50.36
2022-10-12T11:35:41.266Z,50.54
2022-10-12T11:37:07.492Z,51.18
2022-10-12T11:38:15.540Z,50.34
2022-10-12T11:39:32.984Z,48.83
2022-10-12T11:41:05.695Z,50.40
2022-10-12T11:42:22.284Z,50.86
2022-10-12T11:43:29.581Z,49.66
2022-10-12T11:44:35.682Z,50.96
2022-10-12T11:45:41.906Z,52.10
2022-10-12T11:46:52.764Z,52.24
2022-10-12T11:47:58.877Z,50.96
2022-10-12T11:49:06.307Z,50.01
2022-10-12T11:50:18.464Z,48.71
2022-10-12T11:51:21.596Z,49.35
2022-10-12T11:52:28.905Z,50.17
2022-10-12T11:53:40.551Z,49.96
2022-10-12T11:54:49.742Z,49.12
2022-10-12T11:55:55.336Z,49.07
2022-10-12T11:57:01.948Z,50.00
2022-10-12T11:58:13.538Z,49.95
2022-10-12T11:59:24.836Z,51.12
2022-10-12T12:00:42.324Z,51.39
2022-10-12T12:01:45.128Z,50.90
2022-10-12T12:03:03.207Z,51.18
2022-10-12T12:04:39.870Z,51.08
2022-10-12T12:05:37.888Z,51.38
2022-10-12T12:06:48.654Z,51.87
2022-10-12T12:07:54.285Z,51.93
2022-10-12T12:09:00.257Z,52.13
2022-10-12T12:10:23.278Z,52.14
2022-10-12T12:11:27.723Z,51.93
2022-10-12T12:12:30.823Z,52.42
2022-10-12T12:13:33.978Z,52.37
2022-10-12T12:14:37.726Z,52.37
2022-10-12T12:15:42.295Z,52.63
2022-10-12T12:16:45.273Z,52.41
2022-10-12T12:18:04.844Z,53.27
2022-10-12T12:19:26.949Z,52.88
2022-10-12T12:20:42.687Z,53.58
2022-10-12T12:22:04.605Z,53.92
2022-10-12T12:23:18.800Z,53.59
2022-10-12T12:24:23.500Z,52.91
2022-10-12T12:25:32.898Z,53.00
2022-10-12T12:26:35.715Z,53.33
2022-10-12T12:27:43.445Z,53.19
2022-10-12T12:29:08.171Z,53.27
2022-10-12T12:30:20.910Z,53.73
2022-10-12T12:31:23.713Z,53.58
2022-10-12T12:32:27.351Z,53.13
2022-10-12T12:33:41.886Z,51.34
2022-10-12T12:35:02.790Z,51.78
2022-10-12T12:36:07.740Z,53.07
2022-10-12T12:37:12.245Z,52.17
2022-10-12T12:38:17.565Z,52.60
2022-10-12T12:39:26.528Z,52.34
2022-10-12T12:40:29.778Z,51.79
2022-10-12T12:41:54.025Z,52.28
2022-10-12T12:43:21.370Z,51.47
2022-10-12T12:44:43.004Z,50.90
2022-10-12T12:45:57.515Z,50.36
2022-10-12T12:47:00.508Z,50.44
2022-10-12T12:49:26.757Z,50.27
2022-10-12T12:50:39.938Z,50.59
2022-10-12T12:51:43.657Z,49.67
2022-10-12T12:52:46.858Z,48.68
2022-10-12T12:53:55.719Z,49.68
2022-10-12T12:55:10.097Z,46.65
2022-10-12T12:56:42.473Z,46.41
2022-10-12T12:57:57.439Z,48.13
2022-10-12T12:59:19.324Z,48.12
2022-10-12T13:00:24.177Z,48.26
2022-10-12T13:01:45.987Z,48.80
2022-10-12T13:03:08.166Z,49.58
2022-10-12T13:04:23.433Z,49.54
2022-10-12T13:05:33.700Z,50.65
2022-10-12T13:06:54.972Z,50.92
2022-10-12T13:08:16.528Z,50.77
2022-10-12T13:09:38.207Z,51.51
2022-10-12T13:10:59.478Z,51.56
2022-10-12T13:12:02.722Z,51.18
2022-10-12T13:13:24.673Z,51.41
2022-10-12T13:14:45.974Z,51.96
2022-10-12T13:15:55.641Z,51.71
2022-10-12T13:18:46.902Z,52.61
2022-10-12T13:19:53.445Z,52.74
2022-10-12T13:20:57.329Z,52.67
2022-10-12T13:22:03.604Z,52.55
2022-10-12T13:23:08.965Z,52.94
2022-10-12T13:24:11.771Z,53.60
2022-10-12T13:25:24.462Z,53.83
2022-10-12T13:26:29.334Z,53.80
2022-10-12T13:27:51.682Z,53.72
2022-10-12T13:28:55.744Z,54.00
2022-10-12T13:30:09.390Z,53.95
2022-10-12T13:31:27.745Z,54.04
2022-10-12T13:32:30.820Z,54.04
2022-10-12T13:33:37.060Z,53.98
2022-10-12T13:34:43.560Z,54.22
2022-10-12T13:35:46.562Z,54.36
2022-10-12T13:36:49.613Z,54.28
2022-10-12T13:38:04.355Z,54.35
2022-10-12T13:39:17.950Z,54.39
2022-10-12T13:40:40.999Z,54.61
2022-10-12T13:41:44.863Z,54.66
2022-10-12T13:42:47.827Z,54.72
2022-10-12T13:43:53.912Z,54.96
2022-10-12T13:44:57.565Z,55.70
2022-10-12T13:46:01.101Z,55.52
2022-10-12T13:47:20.696Z,55.62
2022-10-12T13:48:46.493Z,55.61
2022-10-12T13:49:47.336Z,55.50
2022-10-12T13:50:51.987Z,55.85
2022-10-12T13:51:56.726Z,55.78
2022-10-12T13:52:59.726Z,55.72
2022-10-12T13:54:03.123Z,55.64
2022-10-12T13:55:15.336Z,55.73
2022-10-12T13:56:19.605Z,55.67
2022-10-12T13:57:32.361Z,55.86
2022-10-12T13:58:36.059Z,56.35
2022-10-12T13:59:39.535Z,56.99
2022-10-12T14:00:46.898Z,56.67
2022-10-12T14:01:51.361Z,56.45
2022-10-12T14:02:54.189Z,56.43
2022-10-12T14:04:04.807Z,56.44
2022-10-12T14:05:26.361Z,56.43
2022-10-12T14:06:31.820Z,56.43
2022-10-12T14:07:36.241Z,56.61
2022-10-12T14:08:39.393Z,56.80
2022-10-12T14:09:45.426Z,57.46
2022-10-12T14:10:50.208Z,57.05
2022-10-12T14:11:54.518Z,57.09
2022-10-12T14:12:58.079Z,57.04
2022-10-12T14:14:01.169Z,58.84
2022-10-12T14:15:04.723Z,57.94
2022-10-12T14:16:08.173Z,58.21
2022-10-12T14:17:20.793Z,58.28
2022-10-12T14:18:34.974Z,58.76
2022-10-12T14:19:41.057Z,58.30
2022-10-12T14:20:43.987Z,58.75
2022-10-12T14:21:48.133Z,58.55
2022-10-12T14:22:51.105Z,59.42